CheckWX is a tool to help pilots better visualize weather data.  It is not intended as a substitute for an official pre-flight weather briefing.

00:51:57 UTC

7L2 METAR
Linton Municipal Airport
Linton, North Dakota, USA
Current

17 mins ago

K7L2 240035Z AUTO 14008KT 10SM 02/01 A3004 RMK AO2
Observed
Mar-24 @ 00:35 UTC
Wind
  • 140° at 8 KTS
Visibility
10 SM
Temperature
C / 36°F
Dewpoint
C / 34°F
Humidity
93%
Altimeter
30.04" Hg
Pressure
1017.32 hPa
Previous

37 mins ago

K7L2 240015Z AUTO 13008KT 10SM 03/01 A3003 RMK AO2
Observed
Mar-24 @ 00:15 UTC
Wind
  • 130° at 8 KTS
Visibility
10 SM
Temperature
C / 37°F
Dewpoint
C / 34°F
Humidity
87%
Altimeter
30.03" Hg
Pressure
1016.92 hPa
Previous

57 mins ago

K7L2 232355Z AUTO 14009KT 10SM 03/01 A3003 RMK AO2
Observed
Mar-23 @ 23:55 UTC
Wind
  • 140° at 9 KTS
Visibility
10 SM
Temperature
C / 37°F
Dewpoint
C / 34°F
Humidity
87%
Altimeter
30.03" Hg
Pressure
1016.92 hPa